Time;durP1;ratioP1;P1;durP2;ratioP2;P2;SDS_P1;SDS_P2;PMS_P1;PMS_P2;Temp;Humidity;BMP_temperature;BMP_pressure;BME280_temperature;BME280_humidity;BME280_pressure;Samples;Min_cycle;Max_cycle;Signal;HPM_P1;HPM_P2
2022/04/18 00:00:35;;;;;;;10.18;4.28;;;;;;;;;;2106285;28;20127;-45
2022/04/18 00:01:36;;;;;;;7.60;3.28;;;;;;;;;;2106279;28;20489;-44
2022/04/18 00:02:37;;;;;;;9.02;4.65;;;;;;;;;;2106242;28;20131;-45
2022/04/18 00:03:39;;;;;;;9.27;3.17;;;;;;;;;;2106249;28;20098;-44
2022/04/18 00:04:39;;;;;;;9.40;3.85;;;;;;;;;;2106286;28;20127;-45
2022/04/18 00:05:41;;;;;;;7.57;3.75;;;;;;;;;;2106081;28;20576;-44
2022/04/18 00:06:42;;;;;;;7.68;4.00;;;;;;;;;;2106212;28;20131;-44
2022/04/18 00:07:43;;;;;;;7.50;3.43;;;;;;;;;;2106230;28;20285;-45
2022/04/18 00:08:44;;;;;;;7.07;4.18;;;;;;;;;;2106250;28;20131;-44
2022/04/18 00:09:46;;;;;;;9.23;4.80;;;;;;;;;;2106176;28;20056;-44
2022/04/18 00:10:47;;;;;;;11.63;3.90;;;;;;;;;;2106119;28;20055;-44
2022/04/18 00:11:48;;;;;;;10.38;4.63;;;;;;;;;;2106167;28;20048;-45
2022/04/18 00:12:49;;;;;;;14.77;6.97;;;;;;;;;;2106222;28;20568;-45
2022/04/18 00:13:50;;;;;;;18.42;7.43;;;;;;;;;;2106200;28;20131;-45
2022/04/18 00:14:51;;;;;;;16.15;6.50;;;;;;;;;;2105928;28;20527;-45
2022/04/18 00:15:52;;;;;;;17.10;6.45;;;;;;;;;;2106341;28;20131;-45
2022/04/18 00:16:53;;;;;;;15.27;6.88;;;;;;;;;;2106134;28;20156;-44
2022/04/18 00:17:55;;;;;;;13.98;6.78;;;;;;;;;;2106309;28;20056;-44
2022/04/18 00:18:55;;;;;;;16.23;5.13;;;;;;;;;;2100597;28;20086;-44
2022/04/18 00:19:57;;;;;;;14.23;5.65;;;;;;;;;;2097709;28;20053;-45
2022/04/18 00:20:58;;;;;;;10.20;4.47;;;;;;;;;;2097738;28;20482;-44
2022/04/18 00:21:59;;;;;;;9.18;4.30;;;;;;;;;;2097678;28;20097;-44
2022/04/18 00:23:00;;;;;;;8.75;3.53;;;;;;;;;;2097783;28;20097;-44
2022/04/18 00:24:02;;;;;;;7.63;4.18;;;;;;;;;;2097768;28;20179;-44
2022/04/18 00:25:03;;;;;;;9.07;4.35;;;;;;;;;;2097845;28;20048;-45
2022/04/18 00:26:04;;;;;;;8.93;4.13;;;;;;;;;;2097644;28;20056;-44
2022/04/18 00:27:05;;;;;;;6.53;2.85;;;;;;;;;;2097805;28;20090;-44
2022/04/18 00:28:06;;;;;;;8.15;4.35;;;;;;;;;;2097645;28;20052;-44
2022/04/18 00:29:07;;;;;;;6.95;3.00;;;;;;;;;;2098029;28;20127;-45
2022/04/18 00:30:09;;;;;;;4.78;2.25;;;;;;;;;;2097799;28;20473;-45
2022/04/18 00:31:10;;;;;;;10.00;3.90;;;;;;;;;;2097797;28;20131;-45
2022/04/18 00:32:11;;;;;;;4.28;2.38;;;;;;;;;;2097670;28;20127;-45
2022/04/18 00:33:12;;;;;;;6.18;3.70;;;;;;;;;;2097657;28;20554;-45
2022/04/18 00:34:14;;;;;;;6.20;3.60;;;;;;;;;;2097663;28;20044;-45
2022/04/18 00:35:15;;;;;;;5.32;3.00;;;;;;;;;;2097574;28;20127;-44
2022/04/18 00:36:16;;;;;;;5.63;2.83;;;;;;;;;;2097724;28;20135;-45
2022/04/18 00:37:17;;;;;;;7.20;2.90;;;;;;;;;;2097575;28;20119;-44
2022/04/18 00:38:19;;;;;;;7.72;3.67;;;;;;;;;;2097729;28;20082;-45
2022/04/18 00:39:21;;;;;;;9.80;4.13;;;;;;;;;;2097344;28;20119;-45
2022/04/18 00:40:22;;;;;;;10.00;4.50;;;;;;;;;;2097689;28;20055;-45
2022/04/18 00:41:23;;;;;;;7.43;3.45;;;;;;;;;;2096672;28;20124;-45
2022/04/18 00:42:25;;;;;;;12.43;4.90;;;;;;;;;;2097528;28;20048;-44
2022/04/18 00:43:37;;;;;;;13.32;5.40;;;;;;;;;;2097638;28;20079;-44
2022/04/18 00:44:38;;;;;;;10.85;5.63;;;;;;;;;;2097255;28;20533;-44
2022/04/18 00:45:39;;;;;;;10.00;4.25;;;;;;;;;;2097470;28;20079;-44
2022/04/18 00:46:40;;;;;;;14.15;6.25;;;;;;;;;;2097662;28;20072;-45
2022/04/18 00:47:41;;;;;;;12.27;5.47;;;;;;;;;;2097506;28;20054;-45
2022/04/18 00:48:43;;;;;;;9.68;3.78;;;;;;;;;;2097563;28;20135;-44
2022/04/18 00:49:44;;;;;;;13.38;5.40;;;;;;;;;;2097598;28;20536;-61
2022/04/18 00:50:46;;;;;;;13.18;5.68;;;;;;;;;;2097500;28;20059;-60
2022/04/18 00:51:47;;;;;;;15.68;6.50;;;;;;;;;;2097605;28;20137;-61
2022/04/18 00:52:49;;;;;;;12.73;4.60;;;;;;;;;;2097572;28;20040;-60
2022/04/18 00:53:50;;;;;;;;;;;;;;;;;;2097996;28;20131;-60
2022/04/18 00:54:54;;;;;;;9.60;3.78;;;;;;;;;;2097420;28;19924;-60
2022/04/18 00:55:55;;;;;;;8.70;4.82;;;;;;;;;;2097647;28;20056;-60
2022/04/18 00:56:56;;;;;;;9.05;3.25;;;;;;;;;;2097527;28;20136;-60
2022/04/18 00:57:57;;;;;;;12.23;4.50;;;;;;;;;;2097558;28;20139;-60
2022/04/18 00:58:58;;;;;;;6.43;3.85;;;;;;;;;;2097458;28;20127;-60
2022/04/18 01:00:00;;;;;;;13.38;5.22;;;;;;;;;;2097482;28;20520;-60
2022/04/18 01:01:01;;;;;;;9.73;4.55;;;;;;;;;;2097618;28;20131;-60
2022/04/18 01:02:03;;;;;;;5.78;3.22;;;;;;;;;;2097428;28;20123;-61
2022/04/18 01:03:04;;;;;;;7.03;3.80;;;;;;;;;;2097462;28;20052;-60
2022/04/18 01:04:06;;;;;;;7.57;2.95;;;;;;;;;;2097466;28;20079;-60
2022/04/18 01:05:07;;;;;;;5.63;3.47;;;;;;;;;;2097791;28;20278;-45
2022/04/18 01:06:08;;;;;;;8.50;4.40;;;;;;;;;;2097365;28;20523;-44
2022/04/18 01:07:09;;;;;;;7.35;3.90;;;;;;;;;;2097500;28;20076;-45
2022/04/18 01:08:11;;;;;;;4.00;2.67;;;;;;;;;;2097432;28;20226;-44
2022/04/18 01:09:12;;;;;;;7.15;3.67;;;;;;;;;;2097339;28;20469;-45
2022/04/18 01:10:14;;;;;;;5.30;3.08;;;;;;;;;;2097320;28;20148;-45
2022/04/18 01:11:15;;;;;;;5.30;2.42;;;;;;;;;;2097473;28;20124;-44
2022/04/18 01:12:16;;;;;;;5.05;3.00;;;;;;;;;;2097464;28;20059;-44
2022/04/18 01:13:17;;;;;;;8.40;3.38;;;;;;;;;;2097526;28;20139;-45
2022/04/18 01:14:18;;;;;;;5.95;3.25;;;;;;;;;;2097315;28;20044;-45
2022/04/18 01:15:19;;;;;;;6.55;2.55;;;;;;;;;;2097317;28;20079;-44
2022/04/18 01:16:20;;;;;;;5.68;3.47;;;;;;;;;;2097495;28;20123;-44
2022/04/18 01:17:22;;;;;;;4.60;2.40;;;;;;;;;;2097415;28;20040;-45
2022/04/18 01:18:23;;;;;;;6.10;3.38;;;;;;;;;;2097175;28;20580;-45
2022/04/18 01:19:24;;;;;;;7.15;3.72;;;;;;;;;;2097197;28;20045;-44
2022/04/18 01:20:25;;;;;;;5.90;3.20;;;;;;;;;;2097701;28;20068;-45
2022/04/18 01:21:27;;;;;;;6.75;3.35;;;;;;;;;;2097439;28;20135;-44
2022/04/18 01:22:28;;;;;;;4.70;1.92;;;;;;;;;;2097545;28;20072;-44
2022/04/18 01:23:29;;;;;;;4.67;2.27;;;;;;;;;;2097418;28;20118;-44
2022/04/18 01:29:49;;;;;;;6.45;3.17;;;;;;;;;;2097426;28;20136;-44
2022/04/18 01:30:50;;;;;;;4.88;2.00;;;;;;;;;;2097297;28;20508;-44
2022/04/18 01:31:51;;;;;;;5.68;3.15;;;;;;;;;;2097242;28;20139;-44
2022/04/18 01:32:52;;;;;;;6.30;2.95;;;;;;;;;;2097340;28;20055;-44
2022/04/18 01:33:54;;;;;;;4.00;2.25;;;;;;;;;;2097383;28;20047;-45
2022/04/18 01:34:57;;;;;;;6.05;3.13;;;;;;;;;;2097264;28;20045;-45
2022/04/18 01:35:58;;;;;;;5.68;2.95;;;;;;;;;;2097334;28;20040;-44
2022/04/18 01:36:59;;;;;;;3.97;2.45;;;;;;;;;;2097372;28;20048;-45
2022/04/18 01:38:01;;;;;;;6.80;3.38;;;;;;;;;;2097286;28;20131;-45
2022/04/18 01:39:02;;;;;;;6.88;2.15;;;;;;;;;;2097309;28;20080;-44
2022/04/18 01:40:03;;;;;;;6.25;3.78;;;;;;;;;;2097305;28;20048;-44
2022/04/18 01:41:04;;;;;;;4.82;2.60;;;;;;;;;;2098952;28;20107;-45
2022/04/18 01:42:05;;;;;;;10.07;3.78;;;;;;;;;;2105692;28;20132;-44
2022/04/18 01:43:07;;;;;;;3.80;2.30;;;;;;;;;;2105707;28;20135;-44
2022/04/18 01:44:08;;;;;;;7.10;3.67;;;;;;;;;;2105496;28;20363;-45
2022/04/18 01:45:09;;;;;;;5.15;2.55;;;;;;;;;;2105561;28;20472;-44
2022/04/18 01:46:11;;;;;;;9.18;4.00;;;;;;;;;;2105478;28;20052;-44
2022/04/18 01:47:12;;;;;;;7.38;3.47;;;;;;;;;;2105643;28;20055;-45
2022/04/18 01:48:13;;;;;;;7.63;3.90;;;;;;;;;;2105570;28;20044;-44
2022/04/18 01:49:14;;;;;;;10.35;4.07;;;;;;;;;;2105485;28;20036;-45
2022/04/18 01:50:15;;;;;;;8.45;3.85;;;;;;;;;;2105703;28;20084;-62
2022/04/18 01:51:17;;;;;;;8.50;3.78;;;;;;;;;;2105585;28;20051;-62
2022/04/18 01:52:19;;;;;;;6.15;3.20;;;;;;;;;;2105815;28;20123;-61
2022/04/18 01:53:20;;;;;;;8.65;4.32;;;;;;;;;;2107059;28;20074;-62
2022/04/18 01:54:21;;;;;;;7.07;3.00;;;;;;;;;;2106898;28;20519;-61
2022/04/18 01:55:22;;;;;;;6.90;2.78;;;;;;;;;;2107093;28;20134;-61
2022/04/18 01:56:23;;;;;;;8.75;3.15;;;;;;;;;;2107303;28;20119;-44
2022/04/18 01:57:24;;;;;;;4.70;2.50;;;;;;;;;;2107070;28;20044;-45
2022/04/18 01:58:26;;;;;;;8.02;3.90;;;;;;;;;;2107092;28;20050;-44
2022/04/18 01:59:27;;;;;;;7.32;3.13;;;;;;;;;;2106998;28;20152;-45
2022/04/18 02:00:28;;;;;;;8.80;4.03;;;;;;;;;;2106990;28;20123;-45
2022/04/18 02:01:30;;;;;;;8.07;3.97;;;;;;;;;;2106982;28;20131;-44
2022/04/18 02:02:32;;;;;;;8.50;3.85;;;;;;;;;;2106855;28;20040;-45
2022/04/18 02:03:33;;;;;;;10.10;4.30;;;;;;;;;;2107254;28;20097;-45
2022/04/18 02:04:34;;;;;;;6.50;3.65;;;;;;;;;;2107003;28;20131;-44
2022/04/18 02:05:35;;;;;;;8.73;4.07;;;;;;;;;;2106939;28;20564;-44
2022/04/18 02:06:36;;;;;;;7.82;3.38;;;;;;;;;;2107007;28;20131;-45
2022/04/18 02:07:38;;;;;;;5.57;2.77;;;;;;;;;;2107098;28;20050;-44
2022/04/18 02:08:40;;;;;;;7.30;4.35;;;;;;;;;;2106786;28;20287;-44
2022/04/18 02:09:41;;;;;;;;;;;;;;;;;;2107473;28;20511;-44
2022/04/18 02:10:42;;;;;;;5.28;2.08;;;;;;;;;;2107071;28;19973;-44
2022/04/18 02:11:43;;;;;;;5.65;3.00;;;;;;;;;;2106845;28;20044;-44
2022/04/18 02:12:44;;;;;;;5.10;2.33;;;;;;;;;;2107014;28;20072;-44
2022/04/18 02:13:46;;;;;;;4.77;2.90;;;;;;;;;;2106889;28;20055;-44
2022/04/18 02:14:47;;;;;;;4.80;3.10;;;;;;;;;;2107081;28;20050;-61
2022/04/18 02:15:48;;;;;;;5.45;3.20;;;;;;;;;;2106865;28;20400;-62
2022/04/18 02:16:49;;;;;;;4.32;2.83;;;;;;;;;;2106982;28;20058;-62
2022/04/18 02:17:50;;;;;;;4.78;2.55;;;;;;;;;;2106931;28;20078;-61
2022/04/18 02:18:51;;;;;;;6.18;3.00;;;;;;;;;;2102114;28;20075;-62
2022/04/18 02:19:53;;;;;;;5.20;3.22;;;;;;;;;;2098713;28;20084;-62
2022/04/18 02:20:54;;;;;;;5.38;3.15;;;;;;;;;;2098509;28;20049;-62
2022/04/18 02:21:55;;;;;;;6.65;2.80;;;;;;;;;;2098637;28;20052;-61
2022/04/18 02:22:57;;;;;;;6.45;3.00;;;;;;;;;;2098502;28;20503;-62
2022/04/18 02:23:58;;;;;;;5.13;2.97;;;;;;;;;;2098419;28;20052;-61
2022/04/18 02:24:59;;;;;;;4.50;2.20;;;;;;;;;;2098577;28;20305;-62
2022/04/18 02:26:00;;;;;;;4.15;2.78;;;;;;;;;;2098526;28;20083;-62
2022/04/18 02:27:01;;;;;;;5.50;2.65;;;;;;;;;;2098577;28;20178;-61
2022/04/18 02:28:03;;;;;;;6.65;3.45;;;;;;;;;;2098461;28;20139;-61
2022/04/18 02:29:04;;;;;;;6.57;2.90;;;;;;;;;;2098482;28;20076;-62
2022/04/18 02:30:05;;;;;;;6.93;2.10;;;;;;;;;;2098575;28;20086;-61
2022/04/18 02:31:06;;;;;;;7.15;3.80;;;;;;;;;;2098563;28;20569;-62
2022/04/18 02:33:28;;;;;;;10.02;4.07;;;;;;;;;;2098269;28;20154;-62
2022/04/18 02:34:29;;;;;;;7.32;3.25;;;;;;;;;;2098417;28;20357;-61
2022/04/18 02:35:30;;;;;;;8.20;4.03;;;;;;;;;;2098422;28;20082;-61
2022/04/18 02:36:31;;;;;;;8.02;3.75;;;;;;;;;;2098358;28;20125;-61
2022/04/18 02:37:32;;;;;;;5.30;2.92;;;;;;;;;;2102006;28;20051;-61
2022/04/18 02:38:34;;;;;;;7.05;3.63;;;;;;;;;;2106686;28;20127;-61
2022/04/18 02:39:35;;;;;;;7.00;3.30;;;;;;;;;;2106770;28;20156;-62
2022/04/18 02:40:36;;;;;;;5.43;2.22;;;;;;;;;;2106995;28;20083;-61
2022/04/18 02:41:37;;;;;;;4.15;2.72;;;;;;;;;;2106672;28;20629;-61
2022/04/18 02:42:39;;;;;;;6.07;3.30;;;;;;;;;;2106752;28;20148;-61
2022/04/18 02:43:40;;;;;;;;;;;;;;;;;;2107246;28;20118;-61
2022/04/18 02:44:45;;;;;;;3.63;2.03;;;;;;;;;;2106742;28;20065;-62
2022/04/18 02:45:46;;;;;;;5.40;3.30;;;;;;;;;;2106855;28;20048;-61
2022/04/18 02:46:47;;;;;;;5.00;3.13;;;;;;;;;;2106820;28;20467;-62
2022/04/18 02:47:49;;;;;;;3.47;2.80;;;;;;;;;;2106882;28;20135;-61
2022/04/18 02:48:52;;;;;;;5.15;2.58;;;;;;;;;;2106571;28;20312;-61
2022/04/18 02:49:54;;;;;;;5.88;2.85;;;;;;;;;;2106804;28;20131;-44
2022/04/18 02:50:54;;;;;;;8.02;3.28;;;;;;;;;;2106648;28;20451;-44
2022/04/18 02:51:56;;;;;;;4.78;3.58;;;;;;;;;;2106911;28;20174;-44
2022/04/18 02:52:57;;;;;;;3.80;2.75;;;;;;;;;;2106848;28;20156;-44
2022/04/18 02:53:59;;;;;;;6.22;3.20;;;;;;;;;;2106635;28;20056;-44
2022/04/18 02:55:00;;;;;;;7.35;3.42;;;;;;;;;;2106685;28;20048;-44
2022/04/18 02:56:01;;;;;;;5.93;3.10;;;;;;;;;;2106657;28;20572;-44
2022/04/18 02:57:02;;;;;;;5.20;2.53;;;;;;;;;;2106806;28;20048;-44
2022/04/18 02:58:03;;;;;;;5.38;2.85;;;;;;;;;;2106796;28;20082;-44
2022/04/18 02:59:04;;;;;;;5.90;2.10;;;;;;;;;;2106579;28;20058;-44
2022/04/18 03:00:07;;;;;;;4.47;3.00;;;;;;;;;;2106687;28;20308;-44
2022/04/18 03:01:09;;;;;;;4.78;2.97;;;;;;;;;;2106555;28;20119;-44
2022/04/18 03:02:09;;;;;;;4.65;2.75;;;;;;;;;;2106552;28;20134;-44
2022/04/18 03:03:11;;;;;;;3.80;2.00;;;;;;;;;;2106638;28;20071;-44
2022/04/18 03:04:12;;;;;;;5.32;2.70;;;;;;;;;;2105777;28;20308;-44
2022/04/18 03:05:13;;;;;;;7.77;3.50;;;;;;;;;;2106643;28;20116;-44
2022/04/18 03:06:14;;;;;;;3.63;2.35;;;;;;;;;;2106686;28;20280;-44
2022/04/18 03:07:15;;;;;;;6.15;2.88;;;;;;;;;;2106645;28;20142;-61
2022/04/18 03:08:16;;;;;;;4.50;2.92;;;;;;;;;;2106548;28;20052;-62
2022/04/18 03:09:19;;;;;;;4.30;2.20;;;;;;;;;;2106432;28;20050;-61
2022/04/18 03:11:02;;;;;;;5.28;3.55;;;;;;;;;;2106477;28;20469;-61
2022/04/18 03:11:41;;;;;;;5.55;2.50;;;;;;;;;;2106658;28;20724;-62
2022/04/18 03:12:42;;;;;;;6.80;2.95;;;;;;;;;;2106549;28;20153;-61
2022/04/18 03:13:44;;;;;;;4.45;2.67;;;;;;;;;;2106642;28;20056;-62
2022/04/18 03:14:45;;;;;;;4.75;2.97;;;;;;;;;;2106368;28;20119;-61
2022/04/18 03:15:46;;;;;;;4.43;3.03;;;;;;;;;;2106501;28;20538;-61
2022/04/18 03:16:47;;;;;;;5.50;2.53;;;;;;;;;;2106475;28;20162;-61
2022/04/18 03:17:49;;;;;;;6.50;2.65;;;;;;;;;;2106584;28;20296;-61
2022/04/18 03:18:50;;;;;;;5.43;3.17;;;;;;;;;;2101740;28;20136;-61
2022/04/18 03:19:52;;;;;;;7.47;3.20;;;;;;;;;;2098111;28;20472;-61
2022/04/18 03:20:54;;;;;;;6.65;3.92;;;;;;;;;;2098128;28;20051;-62
2022/04/18 03:21:55;;;;;;;5.13;3.30;;;;;;;;;;2098449;28;20041;-61
2022/04/18 03:22:56;;;;;;;3.75;1.75;;;;;;;;;;2098274;28;20405;-62
2022/04/18 03:23:57;;;;;;;5.05;3.08;;;;;;;;;;2098069;28;20600;-62
2022/04/18 03:24:59;;;;;;;5.47;2.78;;;;;;;;;;2098218;28;20051;-61
2022/04/18 03:26:00;;;;;;;4.93;2.83;;;;;;;;;;2098026;28;20128;-62
2022/04/18 03:27:02;;;;;;;3.75;2.28;;;;;;;;;;2098115;28;20413;-63
2022/04/18 03:28:03;;;;;;;5.90;2.70;;;;;;;;;;2098112;28;20090;-62
2022/04/18 03:29:04;;;;;;;6.28;3.78;;;;;;;;;;2098206;28;20115;-62
2022/04/18 03:30:06;;;;;;;5.03;3.10;;;;;;;;;;2098125;28;20127;-62
2022/04/18 03:31:07;;;;;;;7.35;2.03;;;;;;;;;;2098020;28;20147;-62
2022/04/18 03:32:08;;;;;;;5.97;2.88;;;;;;;;;;2098102;28;20075;-62
2022/04/18 03:33:09;;;;;;;5.75;2.90;;;;;;;;;;2098137;28;20044;-62
2022/04/18 03:34:10;;;;;;;5.60;2.35;;;;;;;;;;2104788;28;20048;-62
2022/04/18 03:35:11;;;;;;;5.38;3.03;;;;;;;;;;2106451;28;20185;-63
2022/04/18 03:40:12;;;;;;;5.70;3.00;;;;;;;;;;2106348;28;20079;-64
2022/04/18 03:41:13;;;;;;;5.72;3.05;;;;;;;;;;2106316;28;20086;-63
2022/04/18 03:42:14;;;;;;;5.93;2.45;;;;;;;;;;2106458;28;20048;-64
2022/04/18 03:43:15;;;;;;;4.57;2.58;;;;;;;;;;2106352;28;20036;-63
2022/04/18 03:44:17;;;;;;;5.15;2.30;;;;;;;;;;2106392;28;20044;-62
2022/04/18 03:45:19;;;;;;;5.25;3.30;;;;;;;;;;2106360;28;20497;-63
2022/04/18 03:46:20;;;;;;;5.30;2.67;;;;;;;;;;2106491;28;20067;-45
2022/04/18 03:47:21;;;;;;;4.88;2.80;;;;;;;;;;2106448;28;20101;-44
2022/04/18 03:48:22;;;;;;;5.68;3.28;;;;;;;;;;2106446;28;20111;-44
2022/04/18 03:49:23;;;;;;;4.13;2.22;;;;;;;;;;2106371;28;20052;-44
2022/04/18 03:50:24;;;;;;;3.72;2.45;;;;;;;;;;2106254;28;20559;-45
2022/04/18 03:51:25;;;;;;;5.13;3.13;;;;;;;;;;2106273;28;20146;-44
2022/04/18 03:52:26;;;;;;;5.00;3.00;;;;;;;;;;2106440;28;20071;-45
2022/04/18 03:53:27;;;;;;;3.72;1.75;;;;;;;;;;2106182;28;20520;-44
2022/04/18 03:54:28;;;;;;;5.40;3.00;;;;;;;;;;2106242;28;20146;-44
2022/04/18 03:55:31;;;;;;;4.28;2.90;;;;;;;;;;2106141;28;20070;-44
2022/04/18 03:56:32;;;;;;;5.60;2.80;;;;;;;;;;2106541;28;20127;-44
2022/04/18 03:57:33;;;;;;;5.20;2.85;;;;;;;;;;2106479;28;20047;-62
2022/04/18 03:58:34;;;;;;;7.43;2.83;;;;;;;;;;2106301;28;20054;-65
2022/04/18 03:59:35;;;;;;;5.05;2.67;;;;;;;;;;2106182;28;20708;-64
2022/04/18 04:00:38;;;;;;;5.45;2.92;;;;;;;;;;2106570;28;20063;-64
2022/04/18 04:01:40;;;;;;;6.75;3.35;;;;;;;;;;2106334;28;20048;-64
2022/04/18 04:02:43;;;;;;;5.60;2.88;;;;;;;;;;2106342;28;20075;-65
2022/04/18 04:03:44;;;;;;;5.25;2.72;;;;;;;;;;2106104;28;20055;-64
2022/04/18 04:04:45;;;;;;;4.00;2.67;;;;;;;;;;2106356;28;20074;-65
2022/04/18 04:05:46;;;;;;;5.75;3.28;;;;;;;;;;2106385;28;20396;-64
2022/04/18 04:06:47;;;;;;;5.15;3.03;;;;;;;;;;2106125;28;20055;-64
2022/04/18 04:07:48;;;;;;;6.35;2.60;;;;;;;;;;2106287;28;20048;-65
2022/04/18 04:08:49;;;;;;;6.25;2.85;;;;;;;;;;2106245;28;20480;-63
2022/04/18 04:09:51;;;;;;;6.35;3.53;;;;;;;;;;2106191;28;20040;-65
2022/04/18 04:10:52;;;;;;;5.32;3.38;;;;;;;;;;2106126;28;20132;-65
2022/04/18 04:11:53;;;;;;;4.85;2.65;;;;;;;;;;2106275;28;20056;-65
2022/04/18 04:12:54;;;;;;;5.38;3.38;;;;;;;;;;2106329;28;20466;-65
2022/04/18 04:13:56;;;;;;;3.97;2.60;;;;;;;;;;2106353;28;20054;-65
2022/04/18 04:14:57;;;;;;;5.50;3.25;;;;;;;;;;2106121;28;20285;-64
2022/04/18 04:16:02;;;;;;;7.53;2.67;;;;;;;;;;2106277;28;20105;-65
2022/04/18 04:17:04;;;;;;;6.25;3.35;;;;;;;;;;2106173;28;20044;-65
2022/04/18 04:18:05;;;;;;;4.05;2.40;;;;;;;;;;2106168;28;20040;-64
2022/04/18 04:19:06;;;;;;;6.35;3.53;;;;;;;;;;2099335;28;20147;-65
2022/04/18 04:20:08;;;;;;;5.70;3.95;;;;;;;;;;2097706;28;20159;-64
2022/04/18 04:21:09;;;;;;;4.88;3.05;;;;;;;;;;2097813;28;20127;-64
2022/04/18 04:22:10;;;;;;;5.23;2.10;;;;;;;;;;2097920;28;20100;-64
2022/04/18 04:23:11;;;;;;;3.47;2.45;;;;;;;;;;2097690;28;20376;-64
2022/04/18 04:24:12;;;;;;;5.70;3.22;;;;;;;;;;2097619;28;20136;-63
2022/04/18 04:25:13;;;;;;;6.22;2.83;;;;;;;;;;2097916;28;20527;-44
2022/04/18 04:26:15;;;;;;;8.07;3.47;;;;;;;;;;2097760;28;20049;-44
2022/04/18 04:27:16;;;;;;;6.35;3.50;;;;;;;;;;2098007;28;20635;-44
2022/04/18 04:28:17;;;;;;;7.70;3.87;;;;;;;;;;2097801;28;20132;-44
2022/04/18 04:29:18;;;;;;;5.25;3.00;;;;;;;;;;2097627;28;20480;-44
2022/04/18 04:30:19;;;;;;;5.43;3.40;;;;;;;;;;2103561;28;20044;-45
2022/04/18 04:31:20;;;;;;;6.45;3.83;;;;;;;;;;2105987;28;20123;-44
2022/04/18 04:32:23;;;;;;;7.22;4.05;;;;;;;;;;2106157;28;20067;-44
2022/04/18 04:33:25;;;;;;;7.07;3.60;;;;;;;;;;2105989;28;20123;-44
2022/04/18 04:34:26;;;;;;;5.10;2.58;;;;;;;;;;2106071;28;20133;-44
2022/04/18 04:35:27;;;;;;;5.70;2.60;;;;;;;;;;2105963;28;20131;-44
2022/04/18 04:36:28;;;;;;;6.15;3.72;;;;;;;;;;2106050;28;20044;-44
2022/04/18 04:37:29;;;;;;;5.38;3.40;;;;;;;;;;2106006;28;20044;-44
2022/04/18 04:38:30;;;;;;;7.03;3.38;;;;;;;;;;2105921;28;20137;-44
2022/04/18 04:39:31;;;;;;;5.43;3.10;;;;;;;;;;2105895;28;20518;-45
2022/04/18 04:40:33;;;;;;;6.15;3.58;;;;;;;;;;2105936;28;20386;-45
2022/04/18 04:41:34;;;;;;;5.88;2.70;;;;;;;;;;2106091;28;20123;-44
2022/04/18 04:42:35;;;;;;;6.55;3.20;;;;;;;;;;2105936;28;20130;-44
2022/04/18 04:43:36;;;;;;;8.07;2.90;;;;;;;;;;2105969;28;20131;-44
2022/04/18 04:44:37;;;;;;;6.35;3.35;;;;;;;;;;2105917;28;20066;-44
2022/04/18 04:45:38;;;;;;;6.90;3.83;;;;;;;;;;2105997;28;20131;-44
2022/04/18 04:46:40;;;;;;;5.97;3.03;;;;;;;;;;2106202;28;20100;-44
2022/04/18 04:47:43;;;;;;;7.65;3.83;;;;;;;;;;2106002;28;20051;-44
2022/04/18 04:48:44;;;;;;;5.90;3.08;;;;;;;;;;2105786;28;20051;-44
2022/04/18 04:49:45;;;;;;;5.18;2.63;;;;;;;;;;2105991;28;20123;-44
2022/04/18 04:50:46;;;;;;;8.73;3.50;;;;;;;;;;2105822;28;20500;-44
2022/04/18 04:51:47;;;;;;;5.63;3.10;;;;;;;;;;2105928;28;20197;-44
2022/04/18 04:52:49;;;;;;;4.40;2.70;;;;;;;;;;2106061;28;20123;-44
2022/04/18 04:53:50;;;;;;;;;;;;;;;;;;2106178;28;20284;-44
2022/04/18 04:54:51;;;;;;;5.82;3.17;;;;;;;;;;2105918;28;20006;-44
2022/04/18 04:55:52;;;;;;;4.03;2.80;;;;;;;;;;2105689;28;20585;-44
2022/04/18 04:56:54;;;;;;;6.23;3.10;;;;;;;;;;2105951;28;20105;-44
2022/04/18 04:57:55;;;;;;;5.18;3.00;;;;;;;;;;2105901;28;20550;-44
2022/04/18 04:58:56;;;;;;;6.50;3.20;;;;;;;;;;2105923;28;20079;-44
2022/04/18 04:59:57;;;;;;;4.90;2.65;;;;;;;;;;2105799;28;20623;-44
2022/04/18 05:00:58;;;;;;;4.32;2.65;;;;;;;;;;2105954;28;20063;-44
2022/04/18 05:01:59;;;;;;;4.80;2.88;;;;;;;;;;2105802;28;20477;-44
2022/04/18 05:03:00;;;;;;;4.75;3.17;;;;;;;;;;2105915;28;20067;-44
2022/04/18 05:04:02;;;;;;;5.05;2.95;;;;;;;;;;2105895;28;20135;-44
2022/04/18 05:05:03;;;;;;;5.68;3.08;;;;;;;;;;2105793;28;20479;-44
2022/04/18 05:06:04;;;;;;;5.78;2.42;;;;;;;;;;2105783;28;20135;-44
2022/04/18 05:07:05;;;;;;;4.88;3.20;;;;;;;;;;2106052;28;20056;-44
2022/04/18 05:08:06;;;;;;;5.20;2.93;;;;;;;;;;2105944;28;20105;-44
2022/04/18 05:09:07;;;;;;;5.20;3.22;;;;;;;;;;2105586;28;20044;-45
2022/04/18 05:10:08;;;;;;;6.43;3.80;;;;;;;;;;2105790;28;20043;-45
2022/04/18 05:11:09;;;;;;;6.45;3.08;;;;;;;;;;2105817;28;20288;-44
2022/04/18 05:12:11;;;;;;;8.07;3.50;;;;;;;;;;2106021;28;20076;-63
2022/04/18 05:13:13;;;;;;;7.05;3.75;;;;;;;;;;2105772;28;20664;-63
2022/04/18 05:14:14;;;;;;;6.95;3.67;;;;;;;;;;2105769;28;20040;-63
2022/04/18 05:15:16;;;;;;;5.47;3.20;;;;;;;;;;2105646;28;20523;-63
2022/04/18 05:16:17;;;;;;;3.92;2.47;;;;;;;;;;2105723;28;20047;-64
2022/04/18 05:17:18;;;;;;;4.90;2.95;;;;;;;;;;2105811;28;20090;-64
2022/04/18 05:18:19;;;;;;;4.45;2.80;;;;;;;;;;2105439;28;20040;-64
2022/04/18 05:19:20;;;;;;;7.00;3.05;;;;;;;;;;2097291;28;20520;-64
2022/04/18 05:20:21;;;;;;;4.43;2.80;;;;;;;;;;2097336;28;20135;-64
2022/04/18 05:21:22;;;;;;;5.50;2.90;;;;;;;;;;2097439;28;20049;-63
2022/04/18 05:22:24;;;;;;;4.53;2.72;;;;;;;;;;2097332;28;20589;-64
2022/04/18 05:23:25;;;;;;;5.88;2.80;;;;;;;;;;2097475;28;20040;-63
2022/04/18 05:24:26;;;;;;;4.97;3.08;;;;;;;;;;2097328;28;20052;-64
2022/04/18 05:25:27;;;;;;;4.68;3.10;;;;;;;;;;2097314;28;20044;-63
2022/04/18 05:26:28;;;;;;;6.53;3.00;;;;;;;;;;2102483;28;20139;-64
2022/04/18 05:27:30;;;;;;;4.80;2.33;;;;;;;;;;2105091;28;20072;-64
2022/04/18 05:28:31;;;;;;;5.55;2.65;;;;;;;;;;2105754;28;20073;-63
2022/04/18 05:29:34;;;;;;;4.90;3.33;;;;;;;;;;2105683;28;20131;-63
2022/04/18 05:30:37;;;;;;;5.50;3.17;;;;;;;;;;2105624;28;20579;-63
2022/04/18 05:31:38;;;;;;;5.47;2.70;;;;;;;;;;2105547;28;20155;-64
2022/04/18 05:32:43;;;;;;;4.80;2.95;;;;;;;;;;2105786;28;20135;-63
2022/04/18 05:33:44;;;;;;;5.43;2.90;;;;;;;;;;2105582;28;20079;-64
2022/04/18 05:34:45;;;;;;;4.05;2.70;;;;;;;;;;2105765;28;20086;-64
2022/04/18 05:35:46;;;;;;;3.60;2.30;;;;;;;;;;2105817;28;20052;-64
2022/04/18 05:36:47;;;;;;;3.55;2.13;;;;;;;;;;2105558;28;20560;-62
2022/04/18 05:37:48;;;;;;;6.23;2.87;;;;;;;;;;2105597;28;20087;-64
2022/04/18 05:38:49;;;;;;;3.72;2.28;;;;;;;;;;2105485;28;20135;-61
2022/04/18 05:39:50;;;;;;;4.20;2.87;;;;;;;;;;2105610;28;20177;-63
2022/04/18 05:40:51;;;;;;;4.03;2.58;;;;;;;;;;2105546;28;20050;-62
2022/04/18 05:41:52;;;;;;;4.63;2.75;;;;;;;;;;2105587;28;20132;-64
2022/04/18 05:42:54;;;;;;;6.35;3.50;;;;;;;;;;2105676;28;20135;-63
2022/04/18 05:43:55;;;;;;;4.95;3.50;;;;;;;;;;2105501;28;20561;-63
2022/04/18 05:44:56;;;;;;;6.50;3.88;;;;;;;;;;2105851;28;20048;-44
2022/04/18 05:45:57;;;;;;;5.68;3.33;;;;;;;;;;2105996;28;20117;-46
2022/04/18 05:46:58;;;;;;;3.70;2.67;;;;;;;;;;2105722;28;20067;-62
2022/04/18 05:48:00;;;;;;;5.45;3.00;;;;;;;;;;2105691;28;20046;-61
2022/04/18 05:49:01;;;;;;;4.05;2.88;;;;;;;;;;2105647;28;20138;-62
2022/04/18 05:50:02;;;;;;;5.97;2.78;;;;;;;;;;2105550;28;20482;-60
2022/04/18 05:51:03;;;;;;;4.55;3.28;;;;;;;;;;2105851;28;20312;-61
2022/04/18 05:52:05;;;;;;;3.60;2.77;;;;;;;;;;2105613;28;20481;-60
2022/04/18 05:53:06;;;;;;;4.65;2.95;;;;;;;;;;2105680;28;20122;-60
2022/04/18 05:54:07;;;;;;;6.22;3.92;;;;;;;;;;2105484;28;20154;-60
2022/04/18 05:55:08;;;;;;;6.03;3.63;;;;;;;;;;2105473;28;20552;-60
2022/04/18 05:56:09;;;;;;;5.63;3.30;;;;;;;;;;2105534;28;20127;-61
2022/04/18 05:57:11;;;;;;;4.72;2.88;;;;;;;;;;2105579;28;20367;-62
2022/04/18 05:58:13;;;;;;;5.82;4.00;;;;;;;;;;2105607;28;20044;-62
2022/04/18 05:59:14;;;;;;;5.97;3.38;;;;;;;;;;2105385;28;20131;-62
2022/04/18 06:00:15;;;;;;;6.00;3.47;;;;;;;;;;2105606;28;20044;-63
2022/04/18 06:01:16;;;;;;;3.72;2.88;;;;;;;;;;2105458;28;20131;-62
2022/04/18 06:02:18;;;;;;;4.60;2.97;;;;;;;;;;2105470;28;20503;-62
2022/04/18 06:03:18;;;;;;;4.55;3.17;;;;;;;;;;2105435;28;20135;-63
2022/04/18 06:04:20;;;;;;;4.63;3.15;;;;;;;;;;2105362;28;20048;-63
2022/04/18 06:05:21;;;;;;;4.32;3.03;;;;;;;;;;2105442;28;20408;-63
2022/04/18 06:06:22;;;;;;;4.17;2.50;;;;;;;;;;2105734;28;20040;-63
2022/04/18 06:07:23;;;;;;;5.43;3.05;;;;;;;;;;2105560;28;20119;-63
2022/04/18 06:08:25;;;;;;;5.20;2.78;;;;;;;;;;2105584;28;20135;-63
2022/04/18 06:09:26;;;;;;;5.32;3.28;;;;;;;;;;2105389;28;20504;-63
2022/04/18 06:10:27;;;;;;;6.93;3.53;;;;;;;;;;2105383;28;20082;-63
2022/04/18 06:11:28;;;;;;;6.32;3.50;;;;;;;;;;2105673;28;20048;-42
2022/04/18 06:12:29;;;;;;;5.72;3.78;;;;;;;;;;2105435;28;20064;-45
2022/04/18 06:13:31;;;;;;;3.80;2.65;;;;;;;;;;2105383;28;20485;-45
2022/04/18 06:14:32;;;;;;;7.78;3.70;;;;;;;;;;2105627;28;20044;-63
2022/04/18 06:15:33;;;;;;;6.70;2.60;;;;;;;;;;2105465;28;20062;-61
2022/04/18 06:16:34;;;;;;;6.50;3.58;;;;;;;;;;2105470;28;20405;-63
2022/04/18 06:17:35;;;;;;;6.13;3.33;;;;;;;;;;2105631;28;20048;-63
2022/04/18 06:18:37;;;;;;;5.35;2.83;;;;;;;;;;2102567;28;20131;-64